Time;durP1;ratioP1;P1;durP2;ratioP2;P2;SDS_P1;SDS_P2;PMS_P1;PMS_P2;Temp;Humidity;BMP_temperature;BMP_pressure;BME280_temperature;BME280_humidity;BME280_pressure;Samples;Min_cycle;Max_cycle;Signal;HPM_P1;HPM_P2
2021/12/27 00:00:59;;;;;;;2.33;2.13;;;-1.30;99.90;;;;;;5052244;28;20052;-85
2021/12/27 00:03:26;;;;;;;1.83;1.75;;;-1.30;99.90;;;;;;5043592;28;20064;-85
2021/12/27 00:05:53;;;;;;;2.10;2.00;;;-1.30;99.90;;;;;;5061448;28;20048;-84
2021/12/27 00:08:19;;;;;;;1.52;1.42;;;-1.40;99.90;;;;;;5062163;28;20048;-84
2021/12/27 00:10:45;;;;;;;1.38;1.27;;;-1.30;99.90;;;;;;5060655;28;20396;-84
2021/12/27 00:13:10;;;;;;;1.73;1.63;;;-1.30;99.90;;;;;;5063649;28;20102;-83
2021/12/27 00:15:37;;;;;;;1.60;1.50;;;-1.40;99.90;;;;;;5062887;28;20130;-83
2021/12/27 00:18:03;;;;;;;1.30;1.20;;;-1.40;99.90;;;;;;5054157;28;20033;-85
2021/12/27 00:20:28;;;;;;;1.08;1.08;;;-1.40;99.90;;;;;;5042199;28;20124;-84
2021/12/27 00:22:54;;;;;;;1.58;1.48;;;-1.40;99.90;;;;;;5056605;28;20109;-84
2021/12/27 00:25:20;;;;;;;1.65;1.55;;;-1.40;99.90;;;;;;5061882;28;20083;-83
2021/12/27 00:27:46;;;;;;;1.00;1.00;;;-1.40;99.90;;;;;;5057105;28;20064;-84
2021/12/27 00:30:13;;;;;;;1.38;1.27;;;-1.30;99.90;;;;;;5072857;28;20060;-84
2021/12/27 00:32:43;;;;;;;2.13;2.00;;;-1.40;99.90;;;;;;5060143;28;20033;-84
2021/12/27 00:35:09;;;;;;;1.25;1.15;;;-1.40;99.90;;;;;;5061566;28;20104;-84
2021/12/27 00:37:35;;;;;;;2.55;2.35;;;-1.50;99.90;;;;;;5049850;28;20047;-85
2021/12/27 00:40:02;;;;;;;1.10;1.10;;;-1.50;99.90;;;;;;5044394;28;20037;-84
2021/12/27 00:42:27;;;;;;;1.80;1.70;;;-1.40;99.90;;;;;;5051793;28;20048;-84
2021/12/27 00:44:53;;;;;;;1.85;1.75;;;-1.50;99.90;;;;;;5052997;28;20049;-84
2021/12/27 00:47:18;;;;;;;1.10;1.10;;;-1.50;99.90;;;;;;5047354;28;20042;-84
2021/12/27 00:49:44;;;;;;;2.85;2.63;;;-1.40;99.90;;;;;;5059565;28;20045;-84
2021/12/27 00:52:10;;;;;;;1.00;1.00;;;-1.50;99.90;;;;;;5067134;28;20045;-83
2021/12/27 00:54:35;;;;;;;1.85;1.75;;;-1.50;99.90;;;;;;5052652;28;20041;-83
2021/12/27 00:57:01;;;;;;;3.83;2.28;;;-1.60;99.90;;;;;;5057312;28;20046;-84
2021/12/27 00:59:26;;;;;;;1.10;1.10;;;-1.50;99.90;;;;;;5072510;28;20035;-83
2021/12/27 01:01:52;;;;;;;1.77;1.67;;;-1.50;99.90;;;;;;5058140;28;20059;-83
2021/12/27 01:04:18;;;;;;;2.78;2.28;;;-1.60;99.90;;;;;;5043571;28;20036;-84
2021/12/27 01:06:43;;;;;;;1.40;1.30;;;-1.50;99.90;;;;;;5047682;28;20393;-84
2021/12/27 01:09:13;;;;;;;3.25;2.95;;;-1.60;99.90;;;;;;5077611;28;20112;-83
2021/12/27 01:12:08;;;;;;;1.40;1.30;;;-1.50;99.90;;;;;;5060592;28;20060;-84
2021/12/27 01:14:40;;;;;;;1.58;1.48;;;-1.60;99.90;;;;;;5073159;28;20516;-83
2021/12/27 01:17:05;;;;;;;1.80;1.70;;;-1.60;99.90;;;;;;5059250;28;20083;-83
2021/12/27 01:19:31;;;;;;;2.38;2.22;;;-1.60;99.90;;;;;;5065095;28;20033;-83
2021/12/27 01:21:56;;;;;;;1.42;1.33;;;-1.60;99.90;;;;;;5055960;28;20087;-83
2021/12/27 01:24:22;;;;;;;2.75;2.45;;;-1.60;99.90;;;;;;5068069;28;20493;-84
2021/12/27 01:26:48;;;;;;;1.30;1.20;;;;;;;;;;5075533;28;20096;-84
2021/12/27 01:29:14;;;;;;;1.60;1.50;;;-1.60;99.90;;;;;;5060830;28;20183;-84
2021/12/27 01:31:39;;;;;;;1.10;1.10;;;-1.60;99.90;;;;;;5052340;28;20478;-84
2021/12/27 01:34:05;;;;;;;1.42;1.33;;;-1.60;99.90;;;;;;5070039;28;20087;-83
2021/12/27 01:36:32;;;;;;;2.03;1.92;;;-1.60;99.90;;;;;;5059751;28;20044;-84
2021/12/27 01:38:58;;;;;;;1.25;1.23;;;-1.60;99.90;;;;;;5058378;28;20124;-84
2021/12/27 01:41:24;;;;;;;0.98;0.98;;;-1.70;99.90;;;;;;5059923;28;20053;-84
2021/12/27 01:43:49;;;;;;;1.00;1.00;;;-1.60;99.90;;;;;;5043155;28;20049;-84
2021/12/27 01:46:23;;;;;;;1.30;1.20;;;-1.60;99.90;;;;;;5074721;28;20099;-84
2021/12/27 01:48:55;;;;;;;1.50;1.40;;;-1.60;99.90;;;;;;5042468;28;20071;-83
2021/12/27 01:51:23;;;;;;;2.10;2.00;;;-1.70;99.90;;;;;;5055040;28;20060;-84
2021/12/27 01:53:50;;;;;;;1.73;1.63;;;-1.60;99.90;;;;;;5051011;28;20040;-84
2021/12/27 01:56:17;;;;;;;1.80;1.67;;;-1.60;99.90;;;;;;5057362;28;20102;-84
2021/12/27 01:58:44;;;;;;;3.42;2.10;;;-1.60;99.90;;;;;;5056689;28;20060;-83
2021/12/27 02:01:11;;;;;;;2.53;2.30;;;-1.60;99.90;;;;;;5073559;28;20121;-82
2021/12/27 02:03:38;;;;;;;1.20;1.15;;;-1.50;99.90;;;;;;5059368;28;20045;-83
2021/12/27 02:06:06;;;;;;;1.67;1.58;;;-1.60;99.90;;;;;;5075155;28;20043;-83
2021/12/27 02:08:32;;;;;;;1.00;1.00;;;-1.60;99.90;;;;;;5074578;28;20068;-83
2021/12/27 02:10:57;;;;;;;2.25;2.05;;;-1.60;99.90;;;;;;5054112;28;20041;-84
2021/12/27 02:13:23;;;;;;;1.30;1.25;;;-1.60;99.90;;;;;;5050261;28;20060;-84
2021/12/27 02:15:50;;;;;;;2.17;2.03;;;-1.60;99.90;;;;;;5030513;28;20037;-84
2021/12/27 02:18:15;;;;;;;1.30;1.20;;;-1.50;99.90;;;;;;5057671;28;20079;-82
2021/12/27 02:20:43;;;;;;;1.83;1.70;;;-1.50;99.90;;;;;;5058117;28;20170;-84
2021/12/27 02:23:16;;;;;;;1.55;1.45;;;-1.50;99.90;;;;;;5057827;28;20619;-83
2021/12/27 02:25:46;;;;;;;1.30;1.20;;;-1.40;99.90;;;;;;5059374;28;20140;-84
2021/12/27 02:28:13;;;;;;;1.63;1.52;;;-1.50;99.90;;;;;;5063019;28;20036;-84
2021/12/27 02:30:41;;;;;;;1.83;1.73;;;-1.50;99.90;;;;;;5058742;28;20443;-82
2021/12/27 02:33:08;;;;;;;1.58;1.48;;;-1.50;99.90;;;;;;5054504;28;20037;-83
2021/12/27 02:35:46;;;;;;;2.88;2.30;;;-1.50;99.90;;;;;;5059204;28;20056;-82
2021/12/27 02:38:16;;;;;;;1.10;1.10;;;-1.40;99.90;;;;;;5049761;28;20052;-83
2021/12/27 02:40:42;;;;;;;1.63;1.50;;;-1.50;99.90;;;;;;5057395;28;20131;-82
2021/12/27 02:43:11;;;;;;;1.90;1.80;;;-1.50;99.90;;;;;;5056606;28;20041;-84
2021/12/27 02:45:48;;;;;;;1.75;1.65;;;-1.50;99.90;;;;;;5058927;28;20053;-83
2021/12/27 02:48:17;;;;;;;3.47;3.17;;;-1.50;99.90;;;;;;5059122;28;20052;-84
2021/12/27 02:50:45;;;;;;;1.63;1.52;;;-1.50;99.90;;;;;;5058600;28;20133;-84
2021/12/27 02:53:11;;;;;;;1.40;1.30;;;-1.40;99.90;;;;;;5025233;28;20038;-83
2021/12/27 02:55:37;;;;;;;1.30;1.20;;;-1.40;99.90;;;;;;5042378;28;20747;-83
2021/12/27 02:58:03;;;;;;;3.05;2.85;;;-1.40;99.90;;;;;;5059107;28;20385;-83
2021/12/27 03:00:42;;;;;;;2.13;1.98;;;-1.40;99.90;;;;;;5059350;28;20041;-83
2021/12/27 03:03:08;;;;;;;1.50;1.40;;;-1.40;99.90;;;;;;5058411;28;20041;-83
2021/12/27 03:05:34;;;;;;;2.67;2.47;;;-1.40;99.90;;;;;;5054555;28;20056;-84
2021/12/27 03:08:00;;;;;;;2.67;2.13;;;-1.30;99.90;;;;;;5073054;28;20049;-84
2021/12/27 03:10:35;;;;;;;2.85;2.42;;;-1.30;99.90;;;;;;5058698;28;20436;-83
2021/12/27 03:13:02;;;;;;;1.77;1.67;;;-1.30;99.90;;;;;;5058865;28;20118;-83
2021/12/27 03:15:28;;;;;;;1.50;1.40;;;-1.30;99.90;;;;;;5058510;28;20052;-84
2021/12/27 03:17:55;;;;;;;8.10;3.67;;;-1.30;99.90;;;;;;5057730;28;20041;-84
2021/12/27 03:20:29;;;;;;;1.00;1.00;;;-1.30;99.90;;;;;;5071506;28;20451;-84
2021/12/27 03:23:03;;;;;;;5.07;4.00;;;-1.30;99.90;;;;;;5041850;28;20155;-84
2021/12/27 03:25:29;;;;;;;1.00;1.00;;;-1.20;99.90;;;;;;5035835;28;20123;-84
2021/12/27 03:27:55;;;;;;;1.58;1.48;;;-1.30;99.90;;;;;;5058812;28;20481;-83
2021/12/27 03:30:23;;;;;;;1.52;1.42;;;-1.20;99.90;;;;;;5072688;28;20045;-84
2021/12/27 03:32:49;;;;;;;2.70;2.50;;;-1.20;99.90;;;;;;5053335;28;20461;-84
2021/12/27 03:35:24;;;;;;;1.52;1.42;;;-1.30;99.90;;;;;;5069746;28;20055;-84
2021/12/27 03:37:50;;;;;;;2.80;2.60;;;-1.20;99.90;;;;;;5063614;28;20068;-84
2021/12/27 03:40:17;;;;;;;1.52;1.42;;;-1.20;99.90;;;;;;5059535;28;20075;-84
2021/12/27 03:42:49;;;;;;;1.95;1.85;;;-1.20;99.90;;;;;;5062295;28;20055;-84
2021/12/27 03:45:20;;;;;;;1.40;1.30;;;-1.30;99.90;;;;;;5062767;28;20037;-83
2021/12/27 03:47:45;;;;;;;2.03;1.70;;;-1.30;99.90;;;;;;5060819;28;20531;-84
2021/12/27 03:50:11;;;;;;;3.75;2.00;;;-1.30;99.90;;;;;;5056609;28;20087;-84
2021/12/27 03:52:37;;;;;;;2.40;2.20;;;-1.30;99.90;;;;;;5072263;28;20064;-83
2021/12/27 03:55:04;;;;;;;0.93;0.93;;;-1.20;99.90;;;;;;5077495;28;20076;-84
2021/12/27 03:57:32;;;;;;;1.83;1.73;;;-1.20;99.90;;;;;;5065687;28;20040;-83
2021/12/27 04:00:16;;;;;;;2.38;2.20;;;-1.20;99.90;;;;;;5070590;28;20109;-83
2021/12/27 04:02:42;;;;;;;2.50;1.83;;;-1.20;99.90;;;;;;5056717;28;20048;-84
2021/12/27 04:05:09;;;;;;;1.50;1.40;;;-1.20;99.90;;;;;;5045317;28;20075;-84
2021/12/27 04:07:39;;;;;;;2.13;1.67;;;-1.10;99.90;;;;;;5059142;28;20127;-83
2021/12/27 04:10:07;;;;;;;2.20;2.10;;;-1.10;99.90;;;;;;5061230;28;20067;-84
2021/12/27 04:12:33;;;;;;;1.45;1.35;;;-1.10;99.90;;;;;;5055311;28;20037;-84
2021/12/27 04:14:59;;;;;;;1.55;1.42;;;-1.10;99.90;;;;;;5061431;28;20059;-83
2021/12/27 04:17:25;;;;;;;2.67;1.92;;;-1.10;99.90;;;;;;5054979;28;20095;-83
2021/12/27 04:19:51;;;;;;;2.25;2.08;;;-1.10;99.90;;;;;;5056233;28;20037;-83
2021/12/27 04:22:17;;;;;;;2.15;1.70;;;-1.10;99.90;;;;;;5061198;28;20041;-84
2021/12/27 04:24:42;;;;;;;1.10;1.10;;;-1.00;99.90;;;;;;5061619;28;20045;-83
2021/12/27 04:27:08;;;;;;;1.50;1.40;;;-1.10;99.90;;;;;;5055102;28;20038;-83
2021/12/27 04:29:33;;;;;;;2.03;1.92;;;-1.10;99.90;;;;;;5057736;28;20049;-84
2021/12/27 04:31:59;;;;;;;2.30;2.10;;;-1.00;99.90;;;;;;5057526;28;20060;-84
2021/12/27 04:34:25;;;;;;;2.58;2.47;;;;;;;;;;5042942;28;20069;-84
2021/12/27 04:36:51;;;;;;;1.55;1.35;;;-1.00;99.90;;;;;;5060438;28;20037;-82
2021/12/27 04:39:16;;;;;;;1.90;1.80;;;-1.00;99.90;;;;;;5061546;28;20037;-83
2021/12/27 04:41:42;;;;;;;1.33;1.23;;;-1.00;99.90;;;;;;5058083;28;20045;-82
2021/12/27 04:44:08;;;;;;;1.10;1.10;;;-1.00;99.90;;;;;;5058400;28;20028;-83
2021/12/27 04:46:33;;;;;;;2.22;2.08;;;-1.00;99.90;;;;;;5076014;28;20048;-84
2021/12/27 04:48:59;;;;;;;1.75;1.25;;;-1.00;99.90;;;;;;5061026;28;20044;-83
2021/12/27 04:51:25;;;;;;;2.25;1.95;;;-1.00;99.90;;;;;;5059709;28;20112;-82
2021/12/27 04:53:51;;;;;;;1.20;1.13;;;-1.00;99.90;;;;;;5044322;28;20055;-82
2021/12/27 04:56:16;;;;;;;1.30;1.20;;;-1.00;99.90;;;;;;5061018;28;20044;-83
2021/12/27 04:58:46;;;;;;;2.75;2.50;;;-1.00;99.90;;;;;;5060999;28;20116;-83
2021/12/27 05:01:12;;;;;;;2.40;2.25;;;-0.90;99.90;;;;;;5073362;28;20139;-83
2021/12/27 05:03:38;;;;;;;0.88;0.88;;;-1.00;99.90;;;;;;5060573;28;20151;-84
2021/12/27 05:06:06;;;;;;;1.13;1.13;;;-0.90;99.90;;;;;;5072877;28;20049;-84
2021/12/27 05:08:32;;;;;;;1.00;1.00;;;-0.90;99.90;;;;;;5073554;28;20045;-84
2021/12/27 05:10:57;;;;;;;1.95;1.85;;;-0.90;99.90;;;;;;5057539;28;20055;-83
2021/12/27 05:13:23;;;;;;;1.40;1.30;;;-0.90;99.90;;;;;;5061072;28;20075;-84
2021/12/27 05:15:48;;;;;;;1.02;1.02;;;-0.90;99.90;;;;;;5043141;28;20060;-83
2021/12/27 05:18:15;;;;;;;1.83;1.73;;;-0.90;99.90;;;;;;5060690;28;20041;-84
2021/12/27 05:20:40;;;;;;;2.28;1.75;;;-0.90;99.90;;;;;;5060010;28;20067;-83
2021/12/27 05:23:06;;;;;;;1.50;1.40;;;-0.70;99.90;;;;;;5047440;28;20069;-84
2021/12/27 05:25:32;;;;;;;2.03;1.90;;;-0.90;99.90;;;;;;5074346;28;20041;-83
2021/12/27 05:27:57;;;;;;;1.98;1.88;;;-0.90;99.90;;;;;;5053578;28;20043;-83
2021/12/27 05:30:24;;;;;;;2.35;2.15;;;-0.90;99.90;;;;;;5060142;28;20091;-83
2021/12/27 05:32:49;;;;;;;2.25;2.08;;;-0.90;99.90;;;;;;5063897;28;20052;-84
2021/12/27 05:35:16;;;;;;;1.40;1.30;;;-0.90;99.90;;;;;;5060247;28;20048;-84
2021/12/27 05:37:42;;;;;;;2.60;2.40;;;-0.80;99.90;;;;;;5043476;28;20033;-84
2021/12/27 05:40:14;;;;;;;1.08;1.08;;;-0.80;99.90;;;;;;5059887;28;20045;-83
2021/12/27 05:42:41;;;;;;;1.42;1.33;;;-0.80;99.90;;;;;;5057643;28;20146;-84
2021/12/27 05:45:08;;;;;;;2.85;2.15;;;-0.90;99.90;;;;;;5059928;28;20164;-83
2021/12/27 05:47:34;;;;;;;2.30;2.10;;;-0.80;99.90;;;;;;5058609;28;20071;-84
2021/12/27 05:49:59;;;;;;;1.48;1.38;;;-0.30;99.90;;;;;;5059567;28;20445;-83
2021/12/27 05:52:25;;;;;;;1.65;1.55;;;-0.80;99.90;;;;;;5062482;28;20044;-83
2021/12/27 05:54:51;;;;;;;1.63;1.52;;;-0.80;99.90;;;;;;5075583;28;20064;-83
2021/12/27 05:57:16;;;;;;;1.42;1.33;;;-0.80;99.90;;;;;;5056702;28;20037;-83
2021/12/27 05:59:42;;;;;;;1.00;1.00;;;-0.80;99.90;;;;;;5052888;28;20095;-83
2021/12/27 06:02:08;;;;;;;1.00;1.00;;;-0.90;99.90;;;;;;5041147;28;20041;-83
2021/12/27 06:04:33;;;;;;;1.80;1.70;;;-0.80;99.90;;;;;;5042637;28;20102;-83
2021/12/27 06:06:59;;;;;;;1.58;1.48;;;-0.80;99.90;;;;;;5058535;28;20036;-83
2021/12/27 06:09:25;;;;;;;3.08;2.35;;;-0.80;99.90;;;;;;5057509;28;20132;-84
2021/12/27 06:11:50;;;;;;;2.30;1.42;;;-0.80;99.90;;;;;;5057233;28;20140;-83
2021/12/27 06:14:16;;;;;;;1.38;1.27;;;-0.80;99.90;;;;;;5056084;28;20052;-83
2021/12/27 06:16:41;;;;;;;3.15;2.88;;;-0.80;99.90;;;;;;5057717;28;20049;-83
2021/12/27 06:19:07;;;;;;;1.42;1.33;;;-0.80;99.90;;;;;;5041688;28;20064;-83
2021/12/27 06:21:33;;;;;;;1.10;1.10;;;-0.80;99.90;;;;;;5058011;28;20060;-84
2021/12/27 06:24:00;;;;;;;1.55;1.45;;;-0.80;99.90;;;;;;5058824;28;20064;-83
2021/12/27 06:26:26;;;;;;;2.35;2.22;;;-0.80;99.90;;;;;;5058908;28;20087;-83
2021/12/27 06:28:51;;;;;;;2.10;2.00;;;-0.80;99.90;;;;;;5056024;28;20045;-83
2021/12/27 06:31:17;;;;;;;1.92;1.83;;;-0.80;99.90;;;;;;5072702;28;20037;-83
2021/12/27 06:33:42;;;;;;;2.88;1.33;;;-0.80;99.90;;;;;;5052791;28;20056;-83
2021/12/27 06:36:08;;;;;;;5.05;2.67;;;-0.80;99.90;;;;;;5055589;28;20041;-83
2021/12/27 06:38:34;;;;;;;2.78;2.58;;;-0.80;99.90;;;;;;5058767;28;20105;-83
2021/12/27 06:41:00;;;;;;;3.72;2.35;;;-0.80;99.90;;;;;;5058051;28;20063;-83
2021/12/27 06:43:27;;;;;;;1.83;1.73;;;-0.80;99.90;;;;;;5058569;28;20049;-83
2021/12/27 06:45:53;;;;;;;1.75;1.65;;;-0.70;99.90;;;;;;5056387;28;20080;-83
2021/12/27 06:48:19;;;;;;;1.77;1.67;;;-0.70;99.90;;;;;;5058645;28;20041;-82
2021/12/27 06:50:45;;;;;;;4.43;4.10;;;-0.80;99.90;;;;;;5057751;28;20043;-83
2021/12/27 06:53:10;;;;;;;0.93;0.90;;;-0.70;99.90;;;;;;5068850;28;20056;-83
2021/12/27 06:55:36;;;;;;;1.70;1.60;;;-0.80;99.90;;;;;;5057987;28;20094;-83
2021/12/27 06:58:02;;;;;;;1.42;1.33;;;-0.70;99.90;;;;;;5058690;28;20100;-83
2021/12/27 07:00:27;;;;;;;1.10;1.10;;;-0.80;99.90;;;;;;5067506;28;20048;-85
2021/12/27 07:02:53;;;;;;;1.60;1.50;;;-0.80;99.90;;;;;;5057002;28;20037;-83
2021/12/27 07:05:19;;;;;;;1.52;1.42;;;-0.80;99.90;;;;;;5062071;28;20080;-83
2021/12/27 07:07:45;;;;;;;1.00;1.00;;;-0.80;99.90;;;;;;5065223;28;20377;-83
2021/12/27 07:10:13;;;;;;;1.73;1.63;;;-0.70;99.90;;;;;;5057192;28;20041;-83
2021/12/27 07:12:39;;;;;;;0.90;0.90;;;-0.80;99.90;;;;;;5044469;28;20084;-83
2021/12/27 07:15:06;;;;;;;1.45;1.35;;;-0.80;99.90;;;;;;5068457;28;20702;-83
2021/12/27 07:17:32;;;;;;;2.20;1.42;;;-0.70;99.90;;;;;;5063362;28;20128;-83
2021/12/27 07:19:57;;;;;;;1.60;1.48;;;-0.80;99.90;;;;;;5060084;28;20610;-83
2021/12/27 07:22:23;;;;;;;1.25;1.23;;;-0.80;99.90;;;;;;5046519;28;20041;-84
2021/12/27 07:24:49;;;;;;;0.90;0.90;;;-0.70;99.90;;;;;;5068178;28;20107;-83
2021/12/27 07:27:14;;;;;;;12.35;4.70;;;-0.70;99.90;;;;;;5062061;28;20037;-84
2021/12/27 07:29:40;;;;;;;1.13;1.10;;;-0.70;99.90;;;;;;5057169;28;20064;-83
2021/12/27 07:32:06;;;;;;;1.83;1.73;;;-0.70;99.90;;;;;;5060324;28;20056;-83
2021/12/27 07:34:32;;;;;;;1.45;1.35;;;-0.70;99.90;;;;;;5069196;28;20052;-83
2021/12/27 07:36:57;;;;;;;1.98;1.83;;;-0.70;99.90;;;;;;5070811;28;20073;-83
2021/12/27 07:39:24;;;;;;;1.60;1.50;;;-0.70;99.90;;;;;;5062744;28;20037;-83
2021/12/27 07:41:50;;;;;;;1.50;1.38;;;-0.70;99.90;;;;;;5044800;28;20052;-83
2021/12/27 07:44:17;;;;;;;1.55;1.45;;;-0.60;99.90;;;;;;5062737;28;20037;-84
2021/12/27 07:46:45;;;;;;;2.25;2.05;;;-0.60;99.90;;;;;;5058882;28;20191;-83
2021/12/27 07:49:12;;;;;;;1.10;1.10;;;-0.70;99.90;;;;;;5075364;28;20120;-83
2021/12/27 07:51:38;;;;;;;2.90;2.70;;;-0.60;99.90;;;;;;5056033;28;20045;-83
2021/12/27 07:54:04;;;;;;;1.92;1.83;;;-0.60;99.90;;;;;;5060092;28;20513;-83
2021/12/27 07:56:30;;;;;;;1.27;1.27;;;-0.70;99.90;;;;;;5061881;28;20100;-84
2021/12/27 07:58:56;;;;;;;1.38;1.27;;;-0.60;99.90;;;;;;5062151;28;20040;-83
2021/12/27 08:01:22;;;;;;;2.05;1.95;;;-0.60;99.90;;;;;;5060992;28;20188;-83
2021/12/27 08:03:47;;;;;;;1.20;1.20;;;-0.60;99.90;;;;;;5060445;28;20179;-82
2021/12/27 08:06:13;;;;;;;2.45;1.90;;;-0.60;99.90;;;;;;5060743;28;20091;-83
2021/12/27 08:08:39;;;;;;;2.90;2.70;;;-0.60;99.90;;;;;;5061613;28;20442;-83
2021/12/27 08:11:04;;;;;;;1.90;1.80;;;-0.60;99.90;;;;;;5044517;28;20113;-83
2021/12/27 08:13:30;;;;;;;1.15;1.10;;;-0.60;99.90;;;;;;5045340;28;20074;-83
2021/12/27 08:15:55;;;;;;;1.45;1.35;;;-0.60;99.90;;;;;;5060722;28;20052;-83
2021/12/27 08:18:21;;;;;;;4.15;3.83;;;-0.60;99.90;;;;;;5061616;28;20044;-83
2021/12/27 08:20:47;;;;;;;1.25;1.23;;;-0.60;99.90;;;;;;5061001;28;20079;-83
2021/12/27 08:23:13;;;;;;;1.88;1.73;;;-0.60;99.90;;;;;;5069411;28;20053;-83
2021/12/27 08:25:39;;;;;;;3.85;3.55;;;-0.60;99.90;;;;;;5061636;28;20130;-83
2021/12/27 08:28:05;;;;;;;3.35;3.10;;;-0.60;99.90;;;;;;5058892;28;20045;-83
2021/12/27 08:30:31;;;;;;;1.17;1.15;;;-0.50;99.90;;;;;;5057080;28;20037;-83
2021/12/27 08:32:59;;;;;;;1.50;1.40;;;-0.50;99.90;;;;;;5038791;28;20041;-83
2021/12/27 08:35:25;;;;;;;1.98;1.88;;;-0.50;99.90;;;;;;5057408;28;20060;-84
2021/12/27 08:37:51;;;;;;;1.35;1.25;;;-0.50;99.90;;;;;;5070502;28;20080;-84
2021/12/27 08:40:17;;;;;;;2.65;2.33;;;-0.50;99.90;;;;;;5059796;28;20049;-83
2021/12/27 08:42:43;;;;;;;1.50;1.40;;;-0.50;99.90;;;;;;5061334;28;20044;-82
2021/12/27 08:45:10;;;;;;;2.03;1.83;;;-0.50;99.90;;;;;;5044380;28;20051;-83
2021/12/27 08:47:36;;;;;;;2.20;2.05;;;-0.40;99.90;;;;;;5063902;28;20037;-83
2021/12/27 08:50:04;;;;;;;1.65;1.55;;;-0.40;99.90;;;;;;5067687;28;20069;-82
2021/12/27 08:52:30;;;;;;;1.65;1.55;;;-0.40;99.90;;;;;;5059813;28;20063;-83
2021/12/27 08:54:58;;;;;;;1.50;1.40;;;-0.40;99.90;;;;;;5052663;28;20117;-83
2021/12/27 08:57:23;;;;;;;2.08;1.92;;;-0.30;99.90;;;;;;5060458;28;20059;-83
2021/12/27 08:59:49;;;;;;;1.73;1.63;;;-0.30;99.90;;;;;;5067821;28;20032;-83
2021/12/27 09:02:14;;;;;;;2.00;1.85;;;-0.30;99.90;;;;;;5057452;28;20044;-83
2021/12/27 09:04:40;;;;;;;1.20;1.17;;;-0.30;99.90;;;;;;5077006;28;20216;-83
2021/12/27 09:07:06;;;;;;;1.35;1.25;;;-0.20;99.90;;;;;;5059851;28;20032;-83
2021/12/27 09:09:32;;;;;;;2.05;1.52;;;-0.20;99.90;;;;;;5077617;28;20161;-82
2021/12/27 09:11:59;;;;;;;2.40;2.20;;;-0.20;99.90;;;;;;5058844;28;20059;-82
2021/12/27 09:14:25;;;;;;;1.95;1.77;;;-0.20;99.90;;;;;;5050374;28;20128;-82
2021/12/27 09:16:51;;;;;;;2.42;1.98;;;-0.20;99.90;;;;;;5059732;28;20041;-82
2021/12/27 09:19:16;;;;;;;1.00;1.00;;;-0.10;99.90;;;;;;5067854;28;20124;-83
2021/12/27 09:21:42;;;;;;;1.10;1.10;;;-0.10;99.90;;;;;;5049737;28;20048;-84
2021/12/27 09:24:08;;;;;;;1.58;1.35;;;-0.20;99.90;;;;;;5034341;28;20037;-84
2021/12/27 09:26:35;;;;;;;1.30;1.20;;;-0.20;99.90;;;;;;5035019;28;20676;-84
2021/12/27 09:29:01;;;;;;;2.15;1.95;;;-0.10;99.90;;;;;;5053177;28;20060;-84
2021/12/27 09:31:27;;;;;;;1.52;1.42;;;-0.10;99.90;;;;;;5057711;28;20051;-84
2021/12/27 09:33:52;;;;;;;1.48;1.38;;;-0.10;99.90;;;;;;5055031;28;20476;-84
2021/12/27 09:36:18;;;;;;;1.98;1.83;;;-0.10;99.90;;;;;;5059225;28;20124;-84
2021/12/27 09:38:45;;;;;;;4.47;2.72;;;-0.10;99.90;;;;;;5058585;28;20060;-84
2021/12/27 09:41:12;;;;;;;4.72;4.25;;;0.00;99.90;;;;;;5058273;28;20052;-84
2021/12/27 09:43:38;;;;;;;1.83;1.73;;;0.00;99.90;;;;;;5058678;28;20167;-83
2021/12/27 09:46:04;;;;;;;1.17;1.15;;;0.00;99.90;;;;;;5041498;28;20060;-84
2021/12/27 09:48:29;;;;;;;1.95;1.73;;;0.00;99.90;;;;;;5074198;28;20056;-84
2021/12/27 09:50:56;;;;;;;3.22;1.63;;;0.00;99.90;;;;;;5059677;28;20041;-83
2021/12/27 09:53:22;;;;;;;1.90;1.80;;;0.20;99.90;;;;;;5057231;28;20029;-84
2021/12/27 09:55:48;;;;;;;1.65;1.55;;;0.00;99.90;;;;;;5052241;28;20041;-85
2021/12/27 09:58:14;;;;;;;1.98;1.88;;;0.10;99.90;;;;;;5040066;28;20119;-85
2021/12/27 10:00:42;;;;;;;4.75;3.45;;;0.00;99.90;;;;;;5057272;28;20053;-85
2021/12/27 10:03:09;;;;;;;1.58;1.48;;;0.10;99.90;;;;;;5038799;28;20059;-84
2021/12/27 10:05:35;;;;;;;4.57;3.00;;;0.10;99.90;;;;;;5057578;28;20064;-85
2021/12/27 10:08:02;;;;;;;1.40;1.30;;;0.10;99.90;;;;;;5042217;28;20044;-85
2021/12/27 10:10:30;;;;;;;2.58;1.88;;;0.20;99.90;;;;;;5056231;28;20056;-85
2021/12/27 10:12:56;;;;;;;1.30;1.20;;;0.10;99.90;;;;;;5059085;28;20037;-84
2021/12/27 10:15:36;;;;;;;1.92;1.83;;;0.20;99.90;;;;;;5059209;28;20040;-85
2021/12/27 10:18:10;;;;;;;1.02;1.02;;;0.20;99.90;;;;;;5048537;28;20076;-85
2021/12/27 10:20:35;;;;;;;1.35;1.25;;;0.20;99.90;;;;;;5055644;28;20047;-85
2021/12/27 10:23:01;;;;;;;0.98;0.95;;;0.20;99.90;;;;;;5057732;28;20036;-84
2021/12/27 10:25:28;;;;;;;1.85;1.60;;;0.30;99.90;;;;;;5056141;28;20151;-84
2021/12/27 10:27:56;;;;;;;0.90;0.90;;;0.30;99.90;;;;;;5042806;28;20049;-84
2021/12/27 10:30:27;;;;;;;5.28;4.80;;;0.30;99.90;;;;;;5059034;28;20043;-84
2021/12/27 10:33:24;;;;;;;2.15;1.98;;;0.20;99.90;;;;;;5057202;28;20033;-85
2021/12/27 10:35:53;;;;;;;5.07;2.50;;;0.30;99.90;;;;;;5057491;28;20064;-84
2021/12/27 10:38:27;;;;;;;1.65;1.55;;;0.30;99.90;;;;;;5062340;28;20495;-84
2021/12/27 10:40:55;;;;;;;;;;;0.30;99.90;;;;;;5065487;28;20594;-85
2021/12/27 10:43:36;;;;;;;1.00;1.00;;;0.30;99.90;;;;;;5064532;28;20447;-83
2021/12/27 10:46:03;;;;;;;1.05;1.05;;;0.40;99.90;;;;;;5063315;28;20517;-84
2021/12/27 10:48:34;;;;;;;1.88;1.63;;;0.50;99.90;;;;;;5071089;28;20037;-84
2021/12/27 10:51:00;;;;;;;4.05;2.47;;;0.50;99.90;;;;;;5063848;28;20076;-84
2021/12/27 10:53:26;;;;;;;1.00;1.00;;;0.60;99.90;;;;;;5082022;28;20056;-85
2021/12/27 10:55:54;;;;;;;1.77;1.67;;;0.60;99.90;;;;;;5064474;28;20094;-85
2021/12/27 10:58:27;;;;;;;2.10;2.00;;;0.60;99.90;;;;;;5066496;28;20045;-86
2021/12/27 11:01:03;;;;;;;0.93;0.93;;;0.60;99.90;;;;;;5064795;28;20239;-87
2021/12/27 11:03:31;;;;;;;3.33;2.83;;;0.70;99.90;;;;;;5074717;28;20050;-87
2021/12/27 11:05:58;;;;;;;1.23;1.13;;;0.70;99.90;;;;;;5059469;28;20502;-87
2021/12/27 11:08:26;;;;;;;1.52;1.45;;;0.70;99.90;;;;;;5062720;28;20032;-87
2021/12/27 11:10:52;;;;;;;2.47;2.28;;;0.70;99.90;;;;;;5063098;28;20401;-85
2021/12/27 11:13:17;;;;;;;2.45;2.25;;;0.80;99.90;;;;;;5049429;28;20037;-87
2021/12/27 11:15:43;;;;;;;1.15;1.13;;;0.80;99.90;;;;;;5046123;28;20041;-88
2021/12/27 11:18:09;;;;;;;2.38;2.17;;;0.80;99.90;;;;;;5082448;28;20041;-88
2021/12/27 11:20:36;;;;;;;7.38;3.08;;;0.80;99.90;;;;;;5047279;28;20432;-88
2021/12/27 11:23:03;;;;;;;1.25;1.20;;;0.90;99.90;;;;;;5064016;28;20047;-89
2021/12/27 11:25:28;;;;;;;2.42;2.22;;;0.90;99.90;;;;;;5047913;28;20047;-89
2021/12/27 11:27:55;;;;;;;7.13;1.85;;;0.90;99.90;;;;;;5063576;28;20037;-89
2021/12/27 11:30:26;;;;;;;1.17;1.17;;;0.90;99.90;;;;;;5060219;28;20037;-89
2021/12/27 11:33:12;;;;;;;8.85;3.00;;;0.90;99.90;;;;;;5045860;28;20055;-88
2021/12/27 11:35:56;;;;;;;1.77;1.55;;;0.90;99.90;;;;;;5062698;28;20100;-89
2021/12/27 11:38:43;;;;;;;2.08;1.83;;;0.90;99.90;;;;;;5058956;28;20048;-88
2021/12/27 11:41:24;;;;;;;2.00;1.88;;;0.90;99.90;;;;;;5065031;28;20041;-89
2021/12/27 11:43:56;;;;;;;1.38;1.27;;;0.90;99.90;;;;;;5078372;28;20043;-90
2021/12/27 11:46:24;;;;;;;1.55;1.45;;;0.90;99.90;;;;;;5049661;28;20519;-89
2021/12/27 11:48:52;;;;;;;2.47;2.28;;;0.90;99.90;;;;;;5065437;28;20033;-89
2021/12/27 11:51:31;;;;;;;1.13;1.13;;;0.90;99.90;;;;;;5045989;28;20055;-90
2021/12/27 11:54:00;;;;;;;1.50;1.40;;;0.90;99.90;;;;;;5053304;28;20033;-89
2021/12/27 11:56:38;;;;;;;7.03;2.17;;;0.90;99.90;;;;;;5045296;28;20041;-89
2021/12/27 11:59:25;;;;;;;1.90;1.80;;;0.90;99.90;;;;;;5061397;28;20089;-89
2021/12/27 12:01:56;;;;;;;1.60;1.42;;;0.80;99.90;;;;;;5044489;28;20098;-88
2021/12/27 12:04:48;;;;;;;1.80;1.63;;;1.00;99.90;;;;;;5052731;28;20033;-89
2021/12/27 12:07:32;;;;;;;1.85;1.48;;;0.90;99.90;;;;;;5046356;28;20072;-88
2021/12/27 12:10:03;;;;;;;1.67;1.58;;;0.90;99.90;;;;;;5056489;28;20055;-89
2021/12/27 12:12:29;;;;;;;1.95;1.83;;;1.00;99.90;;;;;;5043560;28;20051;-87
2021/12/27 12:15:00;;;;;;;2.05;1.90;;;1.00;99.90;;;;;;5059001;28;20056;-88
2021/12/27 12:17:48;;;;;;;5.57;2.47;;;1.00;99.90;;;;;;5045349;28;20045;-89
2021/12/27 12:20:33;;;;;;;1.60;1.50;;;1.10;99.90;;;;;;5056959;28;20037;-88
2021/12/27 12:23:07;;;;;;;1.83;1.60;;;1.20;99.90;;;;;;5056053;28;20421;-89
2021/12/27 12:25:33;;;;;;;1.25;1.17;;;1.20;99.90;;;;;;5032123;28;20045;-88
2021/12/27 12:28:01;;;;;;;1.55;1.45;;;1.20;99.90;;;;;;5033769;28;20150;-88
2021/12/27 12:30:39;;;;;;;2.65;1.45;;;1.30;99.90;;;;;;5038144;28;20037;-88
2021/12/27 12:33:12;;;;;;;4.47;2.90;;;1.30;99.90;;;;;;5048130;28;20175;-89
2021/12/27 12:35:56;;;;;;;1.17;1.17;;;1.40;99.90;;;;;;5057661;28;20490;-89
2021/12/27 12:38:38;;;;;;;1.85;1.48;;;1.40;99.90;;;;;;5061693;28;20041;-88
2021/12/27 12:41:20;;;;;;;1.10;1.10;;;1.40;99.90;;;;;;5032638;28;20052;-88
2021/12/27 12:43:54;;;;;;;7.63;2.90;;;1.40;99.90;;;;;;5060976;28;20139;-88
2021/12/27 12:46:27;;;;;;;2.67;2.47;;;1.30;99.90;;;;;;5044786;28;20116;-87
2021/12/27 12:49:03;;;;;;;3.70;2.67;;;1.30;99.90;;;;;;5057265;28;20512;-88
2021/12/27 12:51:36;;;;;;;3.00;2.53;;;1.30;99.90;;;;;;5061404;28;20049;-87
2021/12/27 12:54:07;;;;;;;4.60;2.60;;;1.30;99.90;;;;;;5035383;28;20095;-86